sensor_id;sensor_type;location;lat;lon;timestamp;P1;durP1;ratioP1;P2;durP2;ratioP2
78670;SDS011;68277;52.724;6.516;2023-03-11T00:00:57;1.00;;;0.73;;
78670;SDS011;68277;52.724;6.516;2023-03-11T00:03:23;2.45;;;0.93;;
78670;SDS011;68277;52.724;6.516;2023-03-11T00:05:52;1.60;;;1.00;;
78670;SDS011;68277;52.724;6.516;2023-03-11T00:08:19;0.90;;;0.52;;
78670;SDS011;68277;52.724;6.516;2023-03-11T00:10:54;3.88;;;1.35;;
78670;SDS011;68277;52.724;6.516;2023-03-11T00:13:23;1.85;;;0.63;;
78670;SDS011;68277;52.724;6.516;2023-03-11T00:15:51;0.60;;;0.60;;
78670;SDS011;68277;52.724;6.516;2023-03-11T00:18:19;7.68;;;1.40;;
78670;SDS011;68277;52.724;6.516;2023-03-11T00:20:49;6.18;;;0.70;;
78670;SDS011;68277;52.724;6.516;2023-03-11T00:23:15;1.35;;;0.95;;
78670;SDS011;68277;52.724;6.516;2023-03-11T00:25:41;1.92;;;0.70;;
78670;SDS011;68277;52.724;6.516;2023-03-11T00:28:08;2.97;;;0.77;;
78670;SDS011;68277;52.724;6.516;2023-03-11T00:30:37;0.73;;;0.55;;
78670;SDS011;68277;52.724;6.516;2023-03-11T00:33:05;1.58;;;1.13;;
78670;SDS011;68277;52.724;6.516;2023-03-11T00:35:32;0.95;;;0.63;;
78670;SDS011;68277;52.724;6.516;2023-03-11T00:38:00;1.80;;;0.98;;
78670;SDS011;68277;52.724;6.516;2023-03-11T00:40:31;0.85;;;0.43;;
78670;SDS011;68277;52.724;6.516;2023-03-11T00:43:00;0.68;;;0.57;;
78670;SDS011;68277;52.724;6.516;2023-03-11T00:45:27;2.85;;;1.63;;
78670;SDS011;68277;52.724;6.516;2023-03-11T00:47:53;1.60;;;1.35;;
78670;SDS011;68277;52.724;6.516;2023-03-11T00:50:22;2.03;;;1.00;;
78670;SDS011;68277;52.724;6.516;2023-03-11T00:52:50;0.40;;;0.40;;
78670;SDS011;68277;52.724;6.516;2023-03-11T00:55:19;0.70;;;0.40;;
78670;SDS011;68277;52.724;6.516;2023-03-11T00:57:46;0.38;;;0.38;;
78670;SDS011;68277;52.724;6.516;2023-03-11T01:00:13;2.63;;;1.40;;
78670;SDS011;68277;52.724;6.516;2023-03-11T01:02:40;2.88;;;1.00;;
78670;SDS011;68277;52.724;6.516;2023-03-11T01:05:06;2.05;;;0.68;;
78670;SDS011;68277;52.724;6.516;2023-03-11T01:07:32;0.75;;;0.32;;
78670;SDS011;68277;52.724;6.516;2023-03-11T01:09:58;5.38;;;1.40;;
78670;SDS011;68277;52.724;6.516;2023-03-11T01:12:24;0.95;;;0.30;;
78670;SDS011;68277;52.724;6.516;2023-03-11T01:14:50;1.33;;;0.77;;
78670;SDS011;68277;52.724;6.516;2023-03-11T01:17:16;7.75;;;0.90;;
78670;SDS011;68277;52.724;6.516;2023-03-11T01:19:41;1.65;;;0.93;;
78670;SDS011;68277;52.724;6.516;2023-03-11T01:22:08;1.17;;;0.55;;
78670;SDS011;68277;52.724;6.516;2023-03-11T01:24:34;5.82;;;1.58;;
78670;SDS011;68277;52.724;6.516;2023-03-11T01:27:02;2.20;;;0.73;;
78670;SDS011;68277;52.724;6.516;2023-03-11T01:29:28;2.17;;;0.77;;
78670;SDS011;68277;52.724;6.516;2023-03-11T01:31:54;2.90;;;0.95;;
78670;SDS011;68277;52.724;6.516;2023-03-11T01:34:20;0.47;;;0.40;;
78670;SDS011;68277;52.724;6.516;2023-03-11T01:36:45;0.38;;;0.38;;
78670;SDS011;68277;52.724;6.516;2023-03-11T01:39:11;0.28;;;0.22;;
78670;SDS011;68277;52.724;6.516;2023-03-11T01:41:37;1.63;;;0.95;;
78670;SDS011;68277;52.724;6.516;2023-03-11T01:44:02;1.20;;;0.40;;
78670;SDS011;68277;52.724;6.516;2023-03-11T01:49:16;1.33;;;0.85;;
78670;SDS011;68277;52.724;6.516;2023-03-11T01:51:43;1.70;;;0.82;;
78670;SDS011;68277;52.724;6.516;2023-03-11T01:54:17;8.50;;;0.80;;
78670;SDS011;68277;52.724;6.516;2023-03-11T01:56:54;6.28;;;1.65;;
78670;SDS011;68277;52.724;6.516;2023-03-11T01:59:23;1.75;;;0.43;;
78670;SDS011;68277;52.724;6.516;2023-03-11T02:01:54;0.73;;;0.52;;
78670;SDS011;68277;52.724;6.516;2023-03-11T02:04:35;0.77;;;0.38;;
78670;SDS011;68277;52.724;6.516;2023-03-11T02:07:02;2.40;;;1.15;;
78670;SDS011;68277;52.724;6.516;2023-03-11T02:11:55;0.85;;;0.75;;
78670;SDS011;68277;52.724;6.516;2023-03-11T02:14:23;0.35;;;0.35;;
78670;SDS011;68277;52.724;6.516;2023-03-11T02:16:51;0.45;;;0.45;;
78670;SDS011;68277;52.724;6.516;2023-03-11T02:22:04;0.52;;;0.50;;
78670;SDS011;68277;52.724;6.516;2023-03-11T02:27:24;0.22;;;0.22;;
78670;SDS011;68277;52.724;6.516;2023-03-11T02:32:44;9.57;;;1.60;;
78670;SDS011;68277;52.724;6.516;2023-03-11T02:35:14;0.30;;;0.30;;
78670;SDS011;68277;52.724;6.516;2023-03-11T02:37:44;0.50;;;0.50;;
78670;SDS011;68277;52.724;6.516;2023-03-11T02:42:58;1.05;;;0.90;;
78670;SDS011;68277;52.724;6.516;2023-03-11T02:45:26;4.28;;;1.23;;
78670;SDS011;68277;52.724;6.516;2023-03-11T02:50:20;1.75;;;0.93;;
78670;SDS011;68277;52.724;6.516;2023-03-11T02:52:53;1.10;;;1.05;;
78670;SDS011;68277;52.724;6.516;2023-03-11T02:55:20;1.40;;;0.65;;
78670;SDS011;68277;52.724;6.516;2023-03-11T02:57:46;4.03;;;0.73;;
78670;SDS011;68277;52.724;6.516;2023-03-11T03:00:13;0.55;;;0.47;;
78670;SDS011;68277;52.724;6.516;2023-03-11T03:02:45;1.73;;;0.95;;
78670;SDS011;68277;52.724;6.516;2023-03-11T03:05:16;0.70;;;0.35;;
78670;SDS011;68277;52.724;6.516;2023-03-11T03:07:45;0.95;;;0.75;;
78670;SDS011;68277;52.724;6.516;2023-03-11T03:10:12;1.27;;;0.90;;
78670;SDS011;68277;52.724;6.516;2023-03-11T03:12:41;0.82;;;0.60;;
78670;SDS011;68277;52.724;6.516;2023-03-11T03:15:08;1.00;;;0.70;;
78670;SDS011;68277;52.724;6.516;2023-03-11T03:17:35;0.95;;;0.88;;
78670;SDS011;68277;52.724;6.516;2023-03-11T03:20:05;0.88;;;0.80;;
78670;SDS011;68277;52.724;6.516;2023-03-11T03:22:42;0.30;;;0.30;;
78670;SDS011;68277;52.724;6.516;2023-03-11T03:25:10;0.38;;;0.38;;
78670;SDS011;68277;52.724;6.516;2023-03-11T03:27:36;2.50;;;0.77;;
78670;SDS011;68277;52.724;6.516;2023-03-11T03:30:04;0.28;;;0.20;;
78670;SDS011;68277;52.724;6.516;2023-03-11T03:32:32;0.30;;;0.30;;
78670;SDS011;68277;52.724;6.516;2023-03-11T03:35:02;2.45;;;0.70;;
78670;SDS011;68277;52.724;6.516;2023-03-11T03:37:51;2.08;;;0.65;;
78670;SDS011;68277;52.724;6.516;2023-03-11T03:40:19;0.30;;;0.30;;
78670;SDS011;68277;52.724;6.516;2023-03-11T03:42:52;0.75;;;0.75;;
78670;SDS011;68277;52.724;6.516;2023-03-11T03:45:18;1.15;;;0.85;;
78670;SDS011;68277;52.724;6.516;2023-03-11T03:47:44;1.25;;;0.50;;
78670;SDS011;68277;52.724;6.516;2023-03-11T03:50:10;1.85;;;0.88;;
78670;SDS011;68277;52.724;6.516;2023-03-11T03:52:39;0.70;;;0.70;;
78670;SDS011;68277;52.724;6.516;2023-03-11T03:55:07;1.27;;;0.40;;
78670;SDS011;68277;52.724;6.516;2023-03-11T03:57:33;7.40;;;0.85;;
78670;SDS011;68277;52.724;6.516;2023-03-11T04:00:01;2.63;;;0.70;;
78670;SDS011;68277;52.724;6.516;2023-03-11T04:02:38;2.08;;;0.77;;
78670;SDS011;68277;52.724;6.516;2023-03-11T04:05:07;0.43;;;0.30;;
78670;SDS011;68277;52.724;6.516;2023-03-11T04:07:34;0.57;;;0.47;;
78670;SDS011;68277;52.724;6.516;2023-03-11T04:10:02;0.35;;;0.25;;
78670;SDS011;68277;52.724;6.516;2023-03-11T04:12:31;0.03;;;0.03;;
78670;SDS011;68277;52.724;6.516;2023-03-11T04:15:06;1.55;;;0.38;;
78670;SDS011;68277;52.724;6.516;2023-03-11T04:17:50;0.88;;;0.63;;
78670;SDS011;68277;52.724;6.516;2023-03-11T04:20:16;3.75;;;1.00;;
78670;SDS011;68277;52.724;6.516;2023-03-11T04:22:44;0.30;;;0.30;;
78670;SDS011;68277;52.724;6.516;2023-03-11T04:25:10;0.68;;;0.57;;
78670;SDS011;68277;52.724;6.516;2023-03-11T04:27:36;0.43;;;0.32;;
78670;SDS011;68277;52.724;6.516;2023-03-11T04:30:04;0.98;;;0.90;;
78670;SDS011;68277;52.724;6.516;2023-03-11T04:32:30;2.78;;;1.13;;
78670;SDS011;68277;52.724;6.516;2023-03-11T04:34:56;2.97;;;0.80;;
78670;SDS011;68277;52.724;6.516;2023-03-11T04:37:26;0.40;;;0.30;;
78670;SDS011;68277;52.724;6.516;2023-03-11T04:39:52;0.10;;;0.10;;
78670;SDS011;68277;52.724;6.516;2023-03-11T04:42:18;1.73;;;0.93;;
78670;SDS011;68277;52.724;6.516;2023-03-11T04:44:43;0.40;;;0.38;;
78670;SDS011;68277;52.724;6.516;2023-03-11T04:47:13;1.17;;;1.05;;
78670;SDS011;68277;52.724;6.516;2023-03-11T04:49:39;1.00;;;0.55;;
78670;SDS011;68277;52.724;6.516;2023-03-11T04:52:05;0.50;;;0.38;;
78670;SDS011;68277;52.724;6.516;2023-03-11T04:54:31;0.10;;;0.10;;
78670;SDS011;68277;52.724;6.516;2023-03-11T04:56:56;1.75;;;0.73;;
78670;SDS011;68277;52.724;6.516;2023-03-11T04:59:22;0.45;;;0.45;;
78670;SDS011;68277;52.724;6.516;2023-03-11T05:01:49;1.45;;;1.35;;
78670;SDS011;68277;52.724;6.516;2023-03-11T05:04:15;0.15;;;0.15;;
78670;SDS011;68277;52.724;6.516;2023-03-11T05:06:41;5.88;;;0.35;;
78670;SDS011;68277;52.724;6.516;2023-03-11T05:09:07;0.60;;;0.60;;
78670;SDS011;68277;52.724;6.516;2023-03-11T05:11:36;0.57;;;0.30;;
78670;SDS011;68277;52.724;6.516;2023-03-11T05:14:02;1.88;;;0.32;;
78670;SDS011;68277;52.724;6.516;2023-03-11T05:16:27;1.23;;;0.55;;
78670;SDS011;68277;52.724;6.516;2023-03-11T05:18:53;2.10;;;0.93;;
78670;SDS011;68277;52.724;6.516;2023-03-11T05:21:19;2.53;;;0.63;;
78670;SDS011;68277;52.724;6.516;2023-03-11T05:23:45;0.93;;;0.60;;
78670;SDS011;68277;52.724;6.516;2023-03-11T05:26:12;3.95;;;0.90;;
78670;SDS011;68277;52.724;6.516;2023-03-11T05:28:41;0.38;;;0.38;;
78670;SDS011;68277;52.724;6.516;2023-03-11T05:31:07;0.28;;;0.25;;
78670;SDS011;68277;52.724;6.516;2023-03-11T05:33:35;3.83;;;0.32;;
78670;SDS011;68277;52.724;6.516;2023-03-11T05:36:04;0.43;;;0.32;;
78670;SDS011;68277;52.724;6.516;2023-03-11T05:38:31;0.20;;;0.20;;
78670;SDS011;68277;52.724;6.516;2023-03-11T05:40:57;0.52;;;0.15;;
78670;SDS011;68277;52.724;6.516;2023-03-11T05:43:23;0.08;;;0.08;;
78670;SDS011;68277;52.724;6.516;2023-03-11T05:45:52;3.10;;;0.40;;
78670;SDS011;68277;52.724;6.516;2023-03-11T05:48:18;0.22;;;0.22;;
78670;SDS011;68277;52.724;6.516;2023-03-11T05:50:44;0.20;;;0.10;;
78670;SDS011;68277;52.724;6.516;2023-03-11T05:53:09;1.52;;;1.00;;
78670;SDS011;68277;52.724;6.516;2023-03-11T05:55:35;0.28;;;0.20;;
78670;SDS011;68277;52.724;6.516;2023-03-11T05:58:01;0.00;;;0.00;;
78670;SDS011;68277;52.724;6.516;2023-03-11T06:00:27;0.63;;;0.40;;
78670;SDS011;68277;52.724;6.516;2023-03-11T06:02:55;0.32;;;0.28;;
78670;SDS011;68277;52.724;6.516;2023-03-11T06:05:22;1.85;;;0.68;;
78670;SDS011;68277;52.724;6.516;2023-03-11T06:07:49;0.40;;;0.40;;
78670;SDS011;68277;52.724;6.516;2023-03-11T06:10:15;1.95;;;0.85;;
78670;SDS011;68277;52.724;6.516;2023-03-11T06:12:41;0.80;;;0.80;;
78670;SDS011;68277;52.724;6.516;2023-03-11T06:15:14;0.38;;;0.30;;
78670;SDS011;68277;52.724;6.516;2023-03-11T06:17:43;1.33;;;0.47;;
78670;SDS011;68277;52.724;6.516;2023-03-11T06:20:09;0.80;;;0.47;;
78670;SDS011;68277;52.724;6.516;2023-03-11T06:22:48;0.80;;;0.43;;
78670;SDS011;68277;52.724;6.516;2023-03-11T06:25:14;0.10;;;0.10;;
78670;SDS011;68277;52.724;6.516;2023-03-11T06:27:41;1.98;;;1.10;;
78670;SDS011;68277;52.724;6.516;2023-03-11T06:30:13;2.05;;;0.63;;
78670;SDS011;68277;52.724;6.516;2023-03-11T06:32:47;0.85;;;0.75;;
78670;SDS011;68277;52.724;6.516;2023-03-11T06:35:18;2.85;;;1.15;;
78670;SDS011;68277;52.724;6.516;2023-03-11T06:37:44;0.77;;;0.52;;
78670;SDS011;68277;52.724;6.516;2023-03-11T06:40:10;10.23;;;0.60;;
78670;SDS011;68277;52.724;6.516;2023-03-11T06:45:04;1.85;;;0.68;;
78670;SDS011;68277;52.724;6.516;2023-03-11T06:47:30;2.50;;;0.90;;
78670;SDS011;68277;52.724;6.516;2023-03-11T06:49:56;1.20;;;1.10;;
78670;SDS011;68277;52.724;6.516;2023-03-11T06:52:22;1.38;;;0.80;;
78670;SDS011;68277;52.724;6.516;2023-03-11T06:54:48;1.45;;;0.70;;
78670;SDS011;68277;52.724;6.516;2023-03-11T06:57:15;2.13;;;0.95;;
78670;SDS011;68277;52.724;6.516;2023-03-11T06:59:41;2.78;;;0.68;;
78670;SDS011;68277;52.724;6.516;2023-03-11T07:02:09;0.85;;;0.50;;
78670;SDS011;68277;52.724;6.516;2023-03-11T07:04:40;1.20;;;0.40;;
78670;SDS011;68277;52.724;6.516;2023-03-11T07:07:05;1.17;;;0.80;;
78670;SDS011;68277;52.724;6.516;2023-03-11T07:09:37;0.70;;;0.45;;
78670;SDS011;68277;52.724;6.516;2023-03-11T07:12:08;5.25;;;0.88;;
78670;SDS011;68277;52.724;6.516;2023-03-11T07:14:35;1.05;;;0.82;;
78670;SDS011;68277;52.724;6.516;2023-03-11T07:17:01;1.20;;;1.10;;
78670;SDS011;68277;52.724;6.516;2023-03-11T07:19:37;0.35;;;0.35;;
78670;SDS011;68277;52.724;6.516;2023-03-11T07:22:38;2.70;;;1.10;;
78670;SDS011;68277;52.724;6.516;2023-03-11T07:25:03;4.50;;;1.17;;
78670;SDS011;68277;52.724;6.516;2023-03-11T07:27:29;3.78;;;1.10;;
78670;SDS011;68277;52.724;6.516;2023-03-11T07:29:55;3.78;;;0.70;;
78670;SDS011;68277;52.724;6.516;2023-03-11T07:32:20;1.85;;;1.08;;
78670;SDS011;68277;52.724;6.516;2023-03-11T07:34:49;3.95;;;0.95;;
78670;SDS011;68277;52.724;6.516;2023-03-11T07:37:28;1.20;;;0.70;;
78670;SDS011;68277;52.724;6.516;2023-03-11T07:39:59;0.55;;;0.50;;
78670;SDS011;68277;52.724;6.516;2023-03-11T07:42:34;2.53;;;0.98;;
78670;SDS011;68277;52.724;6.516;2023-03-11T07:45:00;0.90;;;0.52;;
78670;SDS011;68277;52.724;6.516;2023-03-11T07:47:34;1.23;;;0.80;;
78670;SDS011;68277;52.724;6.516;2023-03-11T07:50:01;0.80;;;0.77;;
78670;SDS011;68277;52.724;6.516;2023-03-11T07:52:28;1.80;;;1.20;;
78670;SDS011;68277;52.724;6.516;2023-03-11T07:54:55;1.20;;;0.90;;
78670;SDS011;68277;52.724;6.516;2023-03-11T07:57:20;7.70;;;1.33;;
78670;SDS011;68277;52.724;6.516;2023-03-11T07:59:46;1.85;;;0.73;;
78670;SDS011;68277;52.724;6.516;2023-03-11T08:02:11;3.80;;;1.17;;
78670;SDS011;68277;52.724;6.516;2023-03-11T08:04:37;2.22;;;1.00;;
78670;SDS011;68277;52.724;6.516;2023-03-11T08:07:02;4.05;;;0.90;;
78670;SDS011;68277;52.724;6.516;2023-03-11T08:09:28;3.22;;;0.77;;
78670;SDS011;68277;52.724;6.516;2023-03-11T08:11:53;2.58;;;1.08;;
78670;SDS011;68277;52.724;6.516;2023-03-11T08:14:19;0.80;;;0.63;;
78670;SDS011;68277;52.724;6.516;2023-03-11T08:16:44;1.77;;;0.77;;
78670;SDS011;68277;52.724;6.516;2023-03-11T08:19:10;2.42;;;1.15;;
78670;SDS011;68277;52.724;6.516;2023-03-11T08:21:37;1.77;;;0.75;;
78670;SDS011;68277;52.724;6.516;2023-03-11T08:24:02;3.95;;;1.13;;
78670;SDS011;68277;52.724;6.516;2023-03-11T08:26:29;8.65;;;1.83;;
78670;SDS011;68277;52.724;6.516;2023-03-11T08:28:55;2.22;;;0.90;;
78670;SDS011;68277;52.724;6.516;2023-03-11T08:31:22;3.03;;;0.80;;
78670;SDS011;68277;52.724;6.516;2023-03-11T08:33:50;1.60;;;1.02;;
78670;SDS011;68277;52.724;6.516;2023-03-11T08:36:21;1.63;;;0.85;;
78670;SDS011;68277;52.724;6.516;2023-03-11T08:38:46;3.42;;;1.13;;
78670;SDS011;68277;52.724;6.516;2023-03-11T08:41:12;2.90;;;0.88;;
78670;SDS011;68277;52.724;6.516;2023-03-11T08:43:38;2.00;;;1.20;;
78670;SDS011;68277;52.724;6.516;2023-03-11T08:46:04;3.72;;;1.00;;
78670;SDS011;68277;52.724;6.516;2023-03-11T08:48:33;2.60;;;0.85;;
78670;SDS011;68277;52.724;6.516;2023-03-11T08:51:01;5.68;;;1.10;;
78670;SDS011;68277;52.724;6.516;2023-03-11T08:53:27;7.55;;;1.02;;
78670;SDS011;68277;52.724;6.516;2023-03-11T08:55:52;3.28;;;1.10;;
78670;SDS011;68277;52.724;6.516;2023-03-11T08:58:21;3.17;;;0.88;;
78670;SDS011;68277;52.724;6.516;2023-03-11T09:00:48;2.95;;;1.10;;
78670;SDS011;68277;52.724;6.516;2023-03-11T09:03:13;2.78;;;1.00;;
78670;SDS011;68277;52.724;6.516;2023-03-11T09:05:39;13.43;;;1.52;;
78670;SDS011;68277;52.724;6.516;2023-03-11T09:08:04;4.32;;;1.15;;
78670;SDS011;68277;52.724;6.516;2023-03-11T09:10:30;0.60;;;0.50;;
78670;SDS011;68277;52.724;6.516;2023-03-11T09:12:56;3.63;;;0.90;;
78670;SDS011;68277;52.724;6.516;2023-03-11T09:15:21;2.67;;;1.00;;
78670;SDS011;68277;52.724;6.516;2023-03-11T09:17:47;3.47;;;0.70;;
78670;SDS011;68277;52.724;6.516;2023-03-11T09:20:13;4.22;;;0.88;;
78670;SDS011;68277;52.724;6.516;2023-03-11T09:25:09;3.38;;;0.85;;
78670;SDS011;68277;52.724;6.516;2023-03-11T09:27:36;1.08;;;0.65;;
78670;SDS011;68277;52.724;6.516;2023-03-11T09:30:04;2.65;;;0.90;;
78670;SDS011;68277;52.724;6.516;2023-03-11T09:32:31;2.10;;;0.93;;
78670;SDS011;68277;52.724;6.516;2023-03-11T09:34:59;3.38;;;1.52;;
78670;SDS011;68277;52.724;6.516;2023-03-11T09:37:24;4.75;;;1.30;;
78670;SDS011;68277;52.724;6.516;2023-03-11T09:39:51;5.70;;;1.00;;
78670;SDS011;68277;52.724;6.516;2023-03-11T09:42:22;1.95;;;0.70;;
78670;SDS011;68277;52.724;6.516;2023-03-11T09:45:02;4.15;;;1.10;;
78670;SDS011;68277;52.724;6.516;2023-03-11T09:48:10;5.20;;;1.02;;
78670;SDS011;68277;52.724;6.516;2023-03-11T09:50:38;3.75;;;0.80;;
78670;SDS011;68277;52.724;6.516;2023-03-11T09:53:31;1.90;;;1.02;;
78670;SDS011;68277;52.724;6.516;2023-03-11T09:56:01;3.33;;;0.77;;
78670;SDS011;68277;52.724;6.516;2023-03-11T09:58:34;1.45;;;0.45;;
78670;SDS011;68277;52.724;6.516;2023-03-11T10:01:31;3.28;;;1.00;;
78670;SDS011;68277;52.724;6.516;2023-03-11T10:04:03;4.22;;;1.20;;
78670;SDS011;68277;52.724;6.516;2023-03-11T10:06:37;2.97;;;1.15;;
78670;SDS011;68277;52.724;6.516;2023-03-11T10:29:22;3.00;;;0.93;;
78670;SDS011;68277;52.724;6.516;2023-03-11T10:34:42;3.20;;;1.00;;
78670;SDS011;68277;52.724;6.516;2023-03-11T10:37:24;1.48;;;0.70;;
78670;SDS011;68277;52.724;6.516;2023-03-11T10:39:52;2.47;;;0.88;;
78670;SDS011;68277;52.724;6.516;2023-03-11T10:42:21;1.58;;;0.98;;
78670;SDS011;68277;52.724;6.516;2023-03-11T10:44:49;2.97;;;1.27;;
78670;SDS011;68277;52.724;6.516;2023-03-11T10:47:18;2.33;;;0.82;;
78670;SDS011;68277;52.724;6.516;2023-03-11T10:49:49;2.65;;;0.95;;
78670;SDS011;68277;52.724;6.516;2023-03-11T10:52:16;3.42;;;1.20;;
78670;SDS011;68277;52.724;6.516;2023-03-11T11:02:25;1.77;;;0.90;;
78670;SDS011;68277;52.724;6.516;2023-03-11T11:07:40;1.08;;;0.70;;
78670;SDS011;68277;52.724;6.516;2023-03-11T11:10:14;3.70;;;0.75;;
78670;SDS011;68277;52.724;6.516;2023-03-11T11:12:59;5.97;;;0.90;;
78670;SDS011;68277;52.724;6.516;2023-03-11T11:17:53;1.30;;;0.75;;
78670;SDS011;68277;52.724;6.516;2023-03-11T11:20:23;2.03;;;0.95;;
78670;SDS011;68277;52.724;6.516;2023-03-11T11:22:52;4.00;;;1.00;;
78670;SDS011;68277;52.724;6.516;2023-03-11T11:28:15;1.48;;;0.60;;
78670;SDS011;68277;52.724;6.516;2023-03-11T11:30:59;1.02;;;0.47;;
78670;SDS011;68277;52.724;6.516;2023-03-11T11:36:01;3.50;;;0.63;;
78670;SDS011;68277;52.724;6.516;2023-03-11T11:38:29;0.90;;;0.35;;
78670;SDS011;68277;52.724;6.516;2023-03-11T11:41:00;1.00;;;0.57;;
78670;SDS011;68277;52.724;6.516;2023-03-11T11:43:38;3.28;;;0.98;;
78670;SDS011;68277;52.724;6.516;2023-03-11T11:46:12;3.35;;;0.88;;
78670;SDS011;68277;52.724;6.516;2023-03-11T11:48:59;2.90;;;0.70;;
78670;SDS011;68277;52.724;6.516;2023-03-11T11:51:34;1.48;;;0.50;;
78670;SDS011;68277;52.724;6.516;2023-03-11T11:54:09;0.73;;;0.50;;
78670;SDS011;68277;52.724;6.516;2023-03-11T11:56:35;0.93;;;0.30;;
78670;SDS011;68277;52.724;6.516;2023-03-11T11:59:01;1.05;;;0.63;;
78670;SDS011;68277;52.724;6.516;2023-03-11T12:04:05;0.82;;;0.45;;
78670;SDS011;68277;52.724;6.516;2023-03-11T12:09:23;3.42;;;0.40;;
78670;SDS011;68277;52.724;6.516;2023-03-11T12:15:17;2.30;;;0.50;;
78670;SDS011;68277;52.724;6.516;2023-03-11T12:17:56;1.10;;;0.60;;
78670;SDS011;68277;52.724;6.516;2023-03-11T12:20:36;0.98;;;0.55;;
78670;SDS011;68277;52.724;6.516;2023-03-11T12:23:19;1.85;;;0.60;;
78670;SDS011;68277;52.724;6.516;2023-03-11T12:26:03;1.33;;;0.63;;
78670;SDS011;68277;52.724;6.516;2023-03-11T12:31:02;0.57;;;0.47;;
78670;SDS011;68277;52.724;6.516;2023-03-11T12:33:34;3.85;;;0.98;;
78670;SDS011;68277;52.724;6.516;2023-03-11T12:36:01;9.55;;;0.88;;
78670;SDS011;68277;52.724;6.516;2023-03-11T12:38:38;1.27;;;0.60;;
78670;SDS011;68277;52.724;6.516;2023-03-11T12:46:05;0.30;;;0.30;;
78670;SDS011;68277;52.724;6.516;2023-03-11T12:48:42;1.00;;;0.70;;
78670;SDS011;68277;52.724;6.516;2023-03-11T12:53:50;0.85;;;0.30;;
78670;SDS011;68277;52.724;6.516;2023-03-11T12:56:33;2.03;;;0.55;;
78670;SDS011;68277;52.724;6.516;2023-03-11T13:02:35;1.77;;;0.20;;
78670;SDS011;68277;52.724;6.516;2023-03-11T13:10:44;3.53;;;0.30;;
78670;SDS011;68277;52.724;6.516;2023-03-11T13:18:45;0.30;;;0.30;;
78670;SDS011;68277;52.724;6.516;2023-03-11T13:26:46;0.98;;;0.08;;
78670;SDS011;68277;52.724;6.516;2023-03-11T19:25:38;1.80;;;1.38;;
78670;SDS011;68277;52.724;6.516;2023-03-11T19:28:06;4.40;;;2.80;;
78670;SDS011;68277;52.724;6.516;2023-03-11T19:30:32;6.07;;;2.25;;
78670;SDS011;68277;52.724;6.516;2023-03-11T19:32:57;1.20;;;1.00;;
78670;SDS011;68277;52.724;6.516;2023-03-11T19:35:25;2.13;;;1.58;;
78670;SDS011;68277;52.724;6.516;2023-03-11T19:37:51;1.98;;;0.90;;
78670;SDS011;68277;52.724;6.516;2023-03-11T19:40:18;1.60;;;1.08;;
78670;SDS011;68277;52.724;6.516;2023-03-11T19:42:44;1.90;;;1.67;;
78670;SDS011;68277;52.724;6.516;2023-03-11T19:45:12;4.88;;;3.22;;
78670;SDS011;68277;52.724;6.516;2023-03-11T19:47:37;3.25;;;2.75;;
78670;SDS011;68277;52.724;6.516;2023-03-11T19:50:03;6.18;;;3.92;;
78670;SDS011;68277;52.724;6.516;2023-03-11T19:52:29;4.13;;;3.45;;
78670;SDS011;68277;52.724;6.516;2023-03-11T19:55:01;4.20;;;2.55;;
78670;SDS011;68277;52.724;6.516;2023-03-11T19:57:27;6.03;;;3.63;;
78670;SDS011;68277;52.724;6.516;2023-03-11T19:59:54;2.78;;;2.20;;
78670;SDS011;68277;52.724;6.516;2023-03-11T20:02:19;4.82;;;3.40;;
78670;SDS011;68277;52.724;6.516;2023-03-11T20:04:45;7.72;;;5.60;;
78670;SDS011;68277;52.724;6.516;2023-03-11T20:07:10;13.82;;;7.95;;
78670;SDS011;68277;52.724;6.516;2023-03-11T20:09:36;16.17;;;6.63;;
78670;SDS011;68277;52.724;6.516;2023-03-11T20:12:01;23.63;;;10.82;;
78670;SDS011;68277;52.724;6.516;2023-03-11T20:14:27;17.42;;;9.23;;
78670;SDS011;68277;52.724;6.516;2023-03-11T20:16:53;22.58;;;9.23;;
78670;SDS011;68277;52.724;6.516;2023-03-11T20:19:18;13.70;;;8.70;;
78670;SDS011;68277;52.724;6.516;2023-03-11T20:21:44;59.75;;;29.17;;
78670;SDS011;68277;52.724;6.516;2023-03-11T20:24:10;36.63;;;22.45;;
78670;SDS011;68277;52.724;6.516;2023-03-11T20:26:36;37.55;;;22.58;;
78670;SDS011;68277;52.724;6.516;2023-03-11T20:29:02;20.20;;;13.07;;
78670;SDS011;68277;52.724;6.516;2023-03-11T20:31:28;45.05;;;18.65;;
78670;SDS011;68277;52.724;6.516;2023-03-11T20:33:54;20.60;;;6.75;;
78670;SDS011;68277;52.724;6.516;2023-03-11T20:36:22;35.10;;;15.60;;
78670;SDS011;68277;52.724;6.516;2023-03-11T20:38:50;23.23;;;12.20;;
78670;SDS011;68277;52.724;6.516;2023-03-11T20:41:17;24.20;;;10.52;;
78670;SDS011;68277;52.724;6.516;2023-03-11T20:43:43;15.60;;;6.53;;
78670;SDS011;68277;52.724;6.516;2023-03-11T20:46:09;23.58;;;7.15;;
78670;SDS011;68277;52.724;6.516;2023-03-11T20:48:36;9.55;;;4.20;;
78670;SDS011;68277;52.724;6.516;2023-03-11T20:51:07;7.68;;;3.50;;
78670;SDS011;68277;52.724;6.516;2023-03-11T20:53:36;5.57;;;2.85;;
78670;SDS011;68277;52.724;6.516;2023-03-11T20:56:06;6.50;;;2.22;;
78670;SDS011;68277;52.724;6.516;2023-03-11T20:58:36;4.10;;;1.48;;
78670;SDS011;68277;52.724;6.516;2023-03-11T21:01:15;4.63;;;2.25;;
78670;SDS011;68277;52.724;6.516;2023-03-11T21:03:54;4.00;;;2.22;;
78670;SDS011;68277;52.724;6.516;2023-03-11T21:06:23;10.13;;;2.55;;
78670;SDS011;68277;52.724;6.516;2023-03-11T21:08:52;3.90;;;2.15;;
78670;SDS011;68277;52.724;6.516;2023-03-11T21:11:19;2.13;;;1.33;;
78670;SDS011;68277;52.724;6.516;2023-03-11T21:13:47;14.52;;;3.10;;
78670;SDS011;68277;52.724;6.516;2023-03-11T21:16:13;12.35;;;6.55;;
78670;SDS011;68277;52.724;6.516;2023-03-11T21:18:38;11.85;;;6.78;;
78670;SDS011;68277;52.724;6.516;2023-03-11T21:21:05;14.27;;;7.55;;
78670;SDS011;68277;52.724;6.516;2023-03-11T21:25:59;7.70;;;5.60;;
78670;SDS011;68277;52.724;6.516;2023-03-11T21:28:25;5.15;;;2.88;;
78670;SDS011;68277;52.724;6.516;2023-03-11T21:30:57;5.22;;;3.50;;
78670;SDS011;68277;52.724;6.516;2023-03-11T21:33:24;2.65;;;1.77;;
78670;SDS011;68277;52.724;6.516;2023-03-11T21:35:55;4.50;;;2.70;;
78670;SDS011;68277;52.724;6.516;2023-03-11T21:38:22;4.10;;;2.75;;
78670;SDS011;68277;52.724;6.516;2023-03-11T21:40:51;5.00;;;2.60;;
78670;SDS011;68277;52.724;6.516;2023-03-11T21:43:18;8.07;;;3.08;;
78670;SDS011;68277;52.724;6.516;2023-03-11T21:45:44;5.97;;;3.15;;
78670;SDS011;68277;52.724;6.516;2023-03-11T21:48:10;4.57;;;2.92;;
78670;SDS011;68277;52.724;6.516;2023-03-11T21:50:37;2.47;;;2.15;;
78670;SDS011;68277;52.724;6.516;2023-03-11T21:53:03;7.40;;;2.75;;
78670;SDS011;68277;52.724;6.516;2023-03-11T21:55:29;2.30;;;1.85;;
78670;SDS011;68277;52.724;6.516;2023-03-11T21:57:55;6.35;;;2.58;;
78670;SDS011;68277;52.724;6.516;2023-03-11T22:00:20;4.32;;;1.98;;
78670;SDS011;68277;52.724;6.516;2023-03-11T22:02:48;5.35;;;1.90;;
78670;SDS011;68277;52.724;6.516;2023-03-11T22:05:14;3.35;;;1.77;;
78670;SDS011;68277;52.724;6.516;2023-03-11T22:07:40;2.25;;;2.05;;
78670;SDS011;68277;52.724;6.516;2023-03-11T22:10:06;4.90;;;2.17;;
78670;SDS011;68277;52.724;6.516;2023-03-11T22:12:31;1.40;;;1.30;;
78670;SDS011;68277;52.724;6.516;2023-03-11T22:14:57;1.83;;;1.45;;
78670;SDS011;68277;52.724;6.516;2023-03-11T22:17:22;3.92;;;2.40;;
78670;SDS011;68277;52.724;6.516;2023-03-11T22:19:48;3.28;;;1.85;;
78670;SDS011;68277;52.724;6.516;2023-03-11T22:22:14;3.00;;;1.55;;
78670;SDS011;68277;52.724;6.516;2023-03-11T22:24:39;4.70;;;1.52;;
78670;SDS011;68277;52.724;6.516;2023-03-11T22:27:05;6.10;;;1.95;;
78670;SDS011;68277;52.724;6.516;2023-03-11T22:29:30;2.92;;;1.65;;
78670;SDS011;68277;52.724;6.516;2023-03-11T22:31:56;10.77;;;2.10;;
78670;SDS011;68277;52.724;6.516;2023-03-11T22:34:21;4.07;;;2.42;;
78670;SDS011;68277;52.724;6.516;2023-03-11T22:36:47;8.10;;;2.33;;